This is the latest recevied weather packets stored in our database for station/object KC5AV. If no packets are shown the sender has not sent any weather packets the latest 1 day(s).
| Time | Temp. | Humidity | Pressure | Rain* | Wind** | Luminosity | Snow |
|---|---|---|---|---|---|---|---|
| 1778005797 | 28.33° C | 68% | 1008.1 hPa | 0 mm | 1.79 m/s, 179° | 409 W/m² | - |
| 1778005494 | 27.78° C | 71% | 1007.9 hPa | 0 mm | 1.34 m/s, 87° | 417 W/m² | - |
| 1778005190 | 27.78° C | 70% | 1008 hPa | 0 mm | 1.79 m/s, 283° | 418 W/m² | - |
| 1778004887 | 27.78° C | 70% | 1008 hPa | 0 mm | 0.89 m/s, 125° | 450 W/m² | - |
| 1778004584 | 27.78° C | 70% | 1007.7 hPa | 0 mm | 2.24 m/s, 212° | 1091 W/m² | - |
| 1778004280 | 27.78° C | 70% | 1007.9 hPa | 0 mm | 0.89 m/s, 289° | 1101 W/m² | - |
| 1778003977 | 27.22° C | 70% | 1007.9 hPa | 0 mm | 1.79 m/s, 142° | 346 W/m² | - |
| 1778003673 | 27.78° C | 69% | 1008 hPa | 0 mm | 1.79 m/s, 148° | 355 W/m² | - |
| 1778003370 | 27.22° C | 73% | 1008 hPa | 0 mm | 0.89 m/s, 349° | 525 W/m² | - |
| 1778003068 | 26.67° C | 71% | 1008.1 hPa | 0 mm | 1.79 m/s, 132° | 374 W/m² | - |
| 1778002763 | 26.67° C | 74% | 1008.1 hPa | 0 mm | 0.89 m/s, 261° | 449 W/m² | - |
| 1778002460 | 26.11° C | 74% | 1008.1 hPa | 0 mm | 0 m/s | 310 W/m² | - |
| 1778002157 | 26.67° C | 73% | 1008.4 hPa | 0 mm | 1.79 m/s, 280° | 260 W/m² | - |
| 1778001855 | 26.11° C | 74% | 1008.2 hPa | 0 mm | 1.34 m/s, 246° | 448 W/m² | - |
| 1778001554 | 26.11° C | 75% | 1008.1 hPa | 0 mm | 0 m/s | 355 W/m² | - |
| 1778001252 | 26.11° C | 75% | 1008.1 hPa | 0 mm | 0.89 m/s, 197° | 409 W/m² | - |
| 1778000948 | 25.56° C | 75% | 1008.1 hPa | 0 mm | 0 m/s | 327 W/m² | - |
| 1778000645 | 25.56° C | 76% | 1008.4 hPa | 0 mm | 0.89 m/s, 210° | 323 W/m² | - |
| 1778000340 | 25.56° C | 77% | 1008.5 hPa | 0 mm | 0.89 m/s, 157° | 330 W/m² | - |
| 1778000036 | 25.56° C | 76% | 1008.5 hPa | 0 mm | 0 m/s | 493 W/m² | - |
| 1777999732 | 25.56° C | 76% | 1008.4 hPa | 0 mm | 1.79 m/s, 278° | 388 W/m² | - |
| 1777999429 | 25° C | 77% | 1008.6 hPa | 0 mm | 2.24 m/s, 171° | 446 W/m² | - |
| 1777999127 | 24.44° C | 80% | 1008.5 hPa | 0 mm | 0.89 m/s, 288° | 435 W/m² | - |
| 1777998826 | 24.44° C | 81% | 1008.6 hPa | 0 mm | 1.34 m/s, 141° | 319 W/m² | - |
| 1777998524 | 23.89° C | 81% | 1008.4 hPa | 0 mm | 0.89 m/s, 130° | 248 W/m² | - |
* Rain latest hour (hover to see other rain measurements)
** Current wind speed in m/s (hover to see current wind gust speed)